Time;durP1;ratioP1;P1;durP2;ratioP2;P2;SDS_P1;SDS_P2;PMS_P1;PMS_P2;Temp;Humidity;BMP_temperature;BMP_pressure;BME280_temperature;BME280_humidity;BME280_pressure;Samples;Min_cycle;Max_cycle;Signal;HPM_P1;HPM_P2
2022/10/20 00:01:52;;;;;;;33.93;17.47;;;;;;;-145.69;100.00;52553.31;5055516;28;20204;-84
2022/10/20 00:04:19;;;;;;;38.17;17.38;;;;;;;-145.69;100.00;52547.38;5054968;28;20199;-83
2022/10/20 00:06:45;;;;;;;29.70;16.00;;;;;;;-145.69;100.00;52523.59;5055451;28;20199;-83
2022/10/20 00:09:13;;;;;;;36.28;17.77;;;;;;;-145.69;100.00;52543.41;5055603;28;20593;-83
2022/10/20 00:11:40;;;;;;;32.20;17.35;;;;;;;-145.69;100.00;52525.59;5055303;28;20230;-83
2022/10/20 00:14:06;;;;;;;33.60;17.05;;;;;;;-145.69;100.00;52543.41;5055293;28;20203;-82
2022/10/20 00:16:37;;;;;;;39.27;17.53;;;;;;;-145.69;100.00;52513.69;5055494;28;20646;-83
2022/10/20 00:19:04;;;;;;;46.67;17.33;;;;;;;-145.69;100.00;52517.66;5049286;28;20749;-83
2022/10/20 00:21:32;;;;;;;41.60;18.20;;;;;;;-145.69;100.00;52527.56;5035439;28;20208;-83
2022/10/20 00:24:00;;;;;;;40.78;18.55;;;;;;;-145.69;100.00;52529.53;5036038;28;20197;-83
2022/10/20 00:26:30;;;;;;;34.28;17.63;;;;;;;-145.69;100.00;52507.75;5051718;28;20609;-83
2022/10/20 00:28:57;;;;;;;37.83;17.23;;;;;;;-145.69;100.00;52487.97;5055064;28;20203;-83
2022/10/20 00:31:25;;;;;;;36.63;18.05;;;;;;;-145.69;100.00;52531.53;5054982;28;20206;-84
2022/10/20 00:33:52;;;;;;;35.53;18.10;;;;;;;-145.69;100.00;52523.59;5054089;28;20195;-84
2022/10/20 00:36:20;;;;;;;33.42;18.17;;;;;;;-145.69;100.00;52539.44;5035436;28;20686;-83
2022/10/20 00:38:47;;;;;;;34.78;17.52;;;;;;;-145.69;100.00;52523.59;5035493;28;20283;-83
2022/10/20 00:41:15;;;;;;;42.20;18.92;;;;;;;-145.69;100.00;52531.53;5034941;28;20571;-84
2022/10/20 00:43:45;;;;;;;40.53;18.83;;;;;;;-145.69;100.00;52523.59;5035332;28;20196;-84
2022/10/20 00:46:15;;;;;;;38.30;19.52;;;;;;;-145.69;100.00;52545.38;5034643;28;20206;-84
2022/10/20 00:48:46;;;;;;;38.53;19.13;;;;;;;-145.69;100.00;52511.72;5034738;28;20614;-84
2022/10/20 00:51:21;;;;;;;32.85;17.73;;;;;;;-145.69;100.00;52531.53;5033980;28;20210;-83
2022/10/20 00:53:50;;;;;;;33.15;16.65;;;;;;;-145.69;100.00;52527.56;5033334;28;20658;-84
2022/10/20 00:56:17;;;;;;;31.23;16.90;;;;;;;-145.69;100.00;52517.66;5034526;28;20212;-84
2022/10/20 00:58:46;;;;;;;35.58;17.52;;;;;;;-145.69;100.00;52513.69;5034434;28;20564;-84
2022/10/20 01:01:13;;;;;;;42.03;18.40;;;;;;;-145.69;100.00;52503.81;5034222;28;20226;-84
2022/10/20 01:03:44;;;;;;;38.85;16.67;;;;;;;-145.69;100.00;52529.53;5035638;28;20206;-83
2022/10/20 01:06:12;;;;;;;41.67;17.65;;;;;;;-145.69;100.00;52547.38;5054724;28;20203;-84
2022/10/20 01:08:44;;;;;;;36.67;16.98;;;;;;;-145.69;100.00;52529.53;5054101;28;20207;-83
2022/10/20 01:11:18;;;;;;;34.25;15.60;;;;;;;-145.69;100.00;52523.59;5054800;28;20206;-84
2022/10/20 01:13:59;;;;;;;39.17;17.40;;;;;;;-145.69;100.00;52519.63;5039432;28;20203;-84
2022/10/20 01:16:36;;;;;;;33.65;16.63;;;;;;;-145.69;100.00;52541.44;5034918;28;20204;-84
2022/10/20 01:19:19;;;;;;;39.78;19.02;;;;;;;-145.69;100.00;52543.41;5034820;28;20253;-84
2022/10/20 01:22:03;;;;;;;40.38;17.77;;;;;;;-145.69;100.00;52519.63;5034581;28;20243;-83
2022/10/20 01:24:50;;;;;;;34.55;17.90;;;;;;;-145.69;100.00;52527.56;5034941;28;20200;-83
2022/10/20 01:27:28;;;;;;;38.03;17.45;;;;;;;-145.69;100.00;52551.31;5035187;28;20196;-83
2022/10/20 01:30:01;;;;;;;38.23;18.13;;;;;;;-145.69;100.00;52561.22;5035172;28;20207;-83
2022/10/20 01:32:35;;;;;;;39.25;18.38;;;;;;;-145.69;100.00;52509.75;5034655;28;20227;-83
2022/10/20 01:35:10;;;;;;;32.85;16.52;;;;;;;-145.69;100.00;52535.47;5034509;28;20204;-84
2022/10/20 01:37:42;;;;;;;31.83;16.57;;;;;;;-145.69;100.00;52557.28;5035701;28;20535;-83
2022/10/20 01:40:16;;;;;;;38.63;17.80;;;;;;;-145.69;100.00;52531.53;5034900;28;20196;-83
2022/10/20 01:42:47;;;;;;;38.00;17.67;;;;;;;-145.69;100.00;52507.75;5034804;28;20235;-83
2022/10/20 01:45:16;;;;;;;38.83;17.77;;;;;;;-145.69;100.00;52525.59;5033560;28;20200;-82
2022/10/20 01:47:47;;;;;;;36.40;16.58;;;;;;;-145.69;100.00;52533.50;5033601;28;20685;-83
2022/10/20 01:50:15;;;;;;;34.83;16.90;;;;;;;-145.69;100.00;52503.81;5034392;28;20463;-83
2022/10/20 01:52:42;;;;;;;36.23;17.10;;;;;;;-145.69;100.00;52551.31;5041853;28;20219;-83
2022/10/20 01:55:13;;;;;;;33.58;16.20;;;;;;;-145.69;100.00;52583.00;5051021;28;20207;-82
2022/10/20 01:57:49;;;;;;;43.47;17.65;;;;;;;-145.69;100.00;52567.16;5053838;28;20199;-82
2022/10/20 02:00:17;;;;;;;42.97;19.10;;;;;;;-145.69;100.00;52553.31;5053466;28;20202;-82
2022/10/20 02:03:11;;;;;;;43.37;18.13;;;;;;;-145.69;100.00;52539.44;5053307;28;20199;-82
2022/10/20 02:05:52;;;;;;;40.60;17.48;;;;;;;-145.69;100.00;52541.44;5053337;28;20235;-82
2022/10/20 02:08:28;;;;;;;38.37;18.00;;;;;;;-145.69;100.00;52555.28;5045373;28;20203;-82
2022/10/20 02:11:00;;;;;;;44.37;19.10;;;;;;;-145.69;100.00;52535.47;5032981;28;20231;-82
2022/10/20 02:13:30;;;;;;;42.20;18.17;;;;;;;-145.69;100.00;52513.69;5033495;28;20311;-82
2022/10/20 02:16:00;;;;;;;34.90;17.27;;;;;;;-145.69;100.00;52529.53;5032905;28;20663;-82
2022/10/20 02:18:31;;;;;;;36.53;16.65;;;;;;;-145.69;100.00;52547.38;5035167;28;20276;-82
2022/10/20 02:21:01;;;;;;;39.30;18.17;;;;;;;-145.69;100.00;52547.38;5032982;28;20585;-82
2022/10/20 02:23:30;;;;;;;43.63;18.52;;;;;;;-145.69;100.00;52525.59;5032743;28;20207;-82
2022/10/20 02:26:02;;;;;;;41.30;17.83;;;;;;;-145.69;100.00;52559.25;5039475;28;20238;-82
2022/10/20 02:28:34;;;;;;;41.47;17.27;;;;;;;-145.69;100.00;52539.44;5053033;28;20601;-82
2022/10/20 02:31:01;;;;;;;44.10;18.38;;;;;;;-145.69;100.00;52527.56;5052660;28;20207;-82
2022/10/20 02:33:29;;;;;;;45.97;18.83;;;;;;;-145.69;100.00;52549.34;5052434;28;20724;-83
2022/10/20 02:35:58;;;;;;;45.65;18.33;;;;;;;-145.69;100.00;52551.31;5053127;28;20203;-82
2022/10/20 02:38:25;;;;;;;38.20;17.70;;;;;;;-145.69;100.00;52527.56;5052720;28;20203;-82
2022/10/20 02:40:52;;;;;;;38.47;17.42;;;;;;;-145.69;100.00;52551.31;5052719;28;20207;-82
2022/10/20 02:43:20;;;;;;;38.58;17.13;;;;;;;-145.69;100.00;52551.31;5052421;28;20658;-82
2022/10/20 02:45:48;;;;;;;42.60;17.05;;;;;;;-145.69;100.00;52571.13;5052542;28;20658;-82
2022/10/20 02:48:15;;;;;;;37.33;16.52;;;;;;;-145.69;100.00;52511.72;5052739;28;20543;-82
2022/10/20 02:50:41;;;;;;;39.95;17.00;;;;;;;-145.69;100.00;52515.69;5052625;28;20566;-82
2022/10/20 02:53:08;;;;;;;35.88;15.40;;;;;;;-145.69;100.00;52517.66;5052075;28;20249;-82
2022/10/20 02:55:34;;;;;;;41.00;18.77;;;;;;;-145.69;100.00;52563.22;5051095;28;20200;-83
2022/10/20 02:58:01;;;;;;;42.90;17.58;;;;;;;-145.69;100.00;52539.44;5052160;28;20650;-82
2022/10/20 03:00:29;;;;;;;39.88;17.20;;;;;;;-145.69;100.00;52531.53;5052276;28;20612;-82
2022/10/20 03:03:01;;;;;;;39.40;17.20;;;;;;;-145.69;100.00;52553.31;5052693;28;20535;-82
2022/10/20 03:05:28;;;;;;;39.95;17.00;;;;;;;-145.69;100.00;52521.63;5054977;28;20296;-82
2022/10/20 03:07:54;;;;;;;40.13;18.40;;;;;;;-145.69;100.00;52579.06;5056669;28;20195;-83
2022/10/20 03:10:21;;;;;;;41.25;17.67;;;;;;;-145.69;100.00;52575.09;5055398;28;20196;-83
2022/10/20 03:12:48;;;;;;;42.45;17.88;;;;;;;-145.69;100.00;52575.09;5056441;28;20698;-83
2022/10/20 03:15:14;;;;;;;41.23;17.23;;;;;;;-145.69;100.00;52559.25;5056233;28;20295;-82
2022/10/20 03:17:41;;;;;;;39.40;17.33;;;;;;;-145.69;100.00;52551.31;5056089;28;20290;-82
2022/10/20 03:20:11;;;;;;;36.17;16.88;;;;;;;-145.69;100.00;52531.53;5055795;28;20587;-82
2022/10/20 03:22:38;;;;;;;32.17;14.57;;;;;;;-145.69;100.00;52543.41;5055927;28;20249;-83
2022/10/20 03:25:05;;;;;;;34.38;14.88;;;;;;;-145.69;100.00;52531.53;5055384;28;20725;-83
2022/10/20 03:27:31;;;;;;;43.50;16.67;;;;;;;-145.69;100.00;52551.31;5056211;28;20654;-82
2022/10/20 03:29:58;;;;;;;42.97;16.95;;;;;;;-145.69;100.00;52557.28;5055646;28;20203;-83
2022/10/20 03:32:25;;;;;;;41.60;18.30;;;;;;;-145.69;100.00;52531.53;5056258;28;20227;-84
2022/10/20 03:34:51;;;;;;;32.75;16.10;;;;;;;-145.69;100.00;52517.66;5056461;28;20693;-83
2022/10/20 03:37:19;;;;;;;38.67;16.42;;;;;;;-145.69;100.00;52551.31;5056236;28;20203;-84
2022/10/20 03:39:46;;;;;;;34.53;15.80;;;;;;;-145.69;100.00;52521.63;5056005;28;20207;-83
2022/10/20 03:42:14;;;;;;;30.93;14.47;;;;;;;-145.69;100.00;52571.13;5055523;28;20199;-83
2022/10/20 03:44:43;;;;;;;31.83;15.40;;;;;;;-145.69;100.00;52541.44;5056098;28;20558;-83
2022/10/20 03:47:10;;;;;;;39.38;16.40;;;;;;;-145.69;100.00;52559.25;5055356;28;20601;-83
2022/10/20 03:49:39;;;;;;;39.80;16.58;;;;;;;-145.69;100.00;52525.59;5055676;28;20295;-83
2022/10/20 03:52:06;;;;;;;36.53;16.30;;;;;;;-145.69;100.00;52559.25;5055816;28;20199;-83
2022/10/20 03:54:40;;;;;;;31.65;15.35;;;;;;;-145.69;100.00;52513.69;5055589;28;20231;-82
2022/10/20 03:57:06;;;;;;;37.47;15.32;;;;;;;-145.69;100.00;52535.47;5051265;28;20210;-83
2022/10/20 03:59:33;;;;;;;35.90;15.48;;;;;;;-145.69;100.00;52553.31;5055128;28;20261;-83
2022/10/20 04:01:59;;;;;;;34.67;15.05;;;;;;;-145.69;100.00;52527.56;5055577;28;20199;-83
2022/10/20 04:04:28;;;;;;;29.67;14.90;;;;;;;-145.69;100.00;52521.63;5045249;28;20411;-82
2022/10/20 04:06:55;;;;;;;33.00;15.77;;;;;;;-145.69;100.00;52527.56;5035504;28;20208;-82
2022/10/20 04:09:22;;;;;;;31.40;15.52;;;;;;;-145.69;100.00;52555.28;5034816;28;20204;-82
2022/10/20 04:11:49;;;;;;;33.22;15.07;;;;;;;-145.69;100.00;52517.66;5035863;28;20202;-83
2022/10/20 04:14:16;;;;;;;31.03;14.73;;;;;;;-145.69;100.00;52551.31;5035476;28;20238;-83
2022/10/20 04:16:42;;;;;;;32.10;14.87;;;;;;;-145.69;100.00;52535.47;5034586;28;20211;-83
2022/10/20 04:19:09;;;;;;;28.85;13.63;;;;;;;-145.69;100.00;52545.38;5035244;28;20657;-84
2022/10/20 04:21:35;;;;;;;33.67;15.50;;;;;;;-145.69;100.00;52499.84;5035491;28;20207;-83
2022/10/20 04:24:06;;;;;;;30.08;14.48;;;;;;;-145.69;100.00;52551.31;5035354;28;20204;-83
2022/10/20 04:26:32;;;;;;;31.33;14.93;;;;;;;-145.69;100.00;52565.19;5033421;28;20215;-82
2022/10/20 04:29:01;;;;;;;30.97;13.23;;;;;;;-145.69;100.00;52543.41;5051747;28;20222;-82
2022/10/20 04:31:27;;;;;;;32.72;14.25;;;;;;;-145.69;100.00;52557.28;5054557;28;20566;-82
2022/10/20 04:33:54;;;;;;;30.80;13.97;;;;;;;-145.69;100.00;52563.22;5052128;28;20220;-83
2022/10/20 04:36:23;;;;;;;31.10;14.50;;;;;;;-145.69;100.00;52535.47;5035865;28;20196;-83
2022/10/20 04:38:51;;;;;;;28.40;13.47;;;;;;;-145.69;100.00;52535.47;5037229;28;20204;-83
2022/10/20 04:41:18;;;;;;;33.92;15.25;;;;;;;-145.69;100.00;52551.31;5036304;28;20207;-83
2022/10/20 04:43:49;;;;;;;34.00;14.95;;;;;;;-145.69;100.00;52569.16;5037154;28;20211;-83
2022/10/20 04:46:18;;;;;;;30.90;14.13;;;;;;;-145.69;100.00;52511.72;5038046;28;20721;-83
2022/10/20 04:48:47;;;;;;;39.40;15.40;;;;;;;-145.69;100.00;52539.44;5036865;28;20206;-83
2022/10/20 04:51:16;;;;;;;37.60;16.52;;;;;;;-145.69;100.00;52519.63;5036157;28;20201;-83
2022/10/20 04:53:43;;;;;;;28.80;14.18;;;;;;;-145.69;100.00;52531.53;5035665;28;20227;-84
2022/10/20 04:56:13;;;;;;;27.37;14.47;;;;;;;-145.69;100.00;52547.38;5034650;28;20647;-83
2022/10/20 04:58:41;;;;;;;33.77;14.67;;;;;;;-145.69;100.00;52571.13;5034502;28;20204;-83
2022/10/20 05:01:09;;;;;;;32.43;13.80;;;;;;;-145.69;100.00;52529.53;5034587;28;20213;-83
2022/10/20 05:03:37;;;;;;;29.88;14.93;;;;;;;-145.69;100.00;52559.25;5038791;28;20217;-83
2022/10/20 05:06:12;;;;;;;29.05;12.80;;;;;;;-145.69;100.00;52539.44;5054394;28;20203;-83
2022/10/20 05:08:39;;;;;;;28.92;13.90;;;;;;;-145.69;100.00;52569.16;5054172;28;20203;-85
2022/10/20 05:11:06;;;;;;;32.55;14.60;;;;;;;-145.69;100.00;52533.50;5054757;28;20235;-84
2022/10/20 05:13:33;;;;;;;27.27;13.57;;;;;;;-145.69;100.00;52561.22;5054244;28;20227;-84
2022/10/20 05:15:59;;;;;;;28.88;14.10;;;;;;;-145.69;100.00;52547.38;5054041;28;20200;-84
2022/10/20 05:18:26;;;;;;;23.40;12.82;;;;;;;-145.69;100.00;52517.66;5054560;28;20239;-82
2022/10/20 05:20:57;;;;;;;28.40;13.13;;;;;;;-145.69;100.00;52567.16;5054379;28;20207;-83
2022/10/20 05:23:23;;;;;;;31.40;13.53;;;;;;;-145.69;100.00;52559.25;5056420;28;20269;-84
2022/10/20 05:25:50;;;;;;;26.83;11.93;;;;;;;-145.69;100.00;52539.44;5055580;28;20562;-84
2022/10/20 05:28:17;;;;;;;25.17;12.53;;;;;;;-145.69;100.00;52533.50;5054727;28;20204;-84
2022/10/20 05:30:43;;;;;;;24.20;12.48;;;;;;;-145.69;100.00;52543.41;5056202;28;20210;-84
2022/10/20 05:33:11;;;;;;;22.13;12.13;;;;;;;-145.69;100.00;52571.13;5054159;28;20223;-84
2022/10/20 05:35:37;;;;;;;24.60;11.60;;;;;;;-145.69;100.00;52539.44;5058626;28;20198;-84
2022/10/20 05:38:05;;;;;;;21.63;11.67;;;;;;;-145.69;100.00;52598.84;5055964;28;20199;-84
2022/10/20 05:40:32;;;;;;;23.98;11.57;;;;;;;-145.69;100.00;52561.22;5056305;28;20242;-83
2022/10/20 05:43:00;;;;;;;21.17;11.20;;;;;;;-145.69;100.00;52553.31;5054771;28;20298;-83
2022/10/20 05:45:26;;;;;;;20.97;11.03;;;;;;;-145.69;100.00;52527.56;5054985;28;20287;-83
2022/10/20 05:47:53;;;;;;;18.50;10.53;;;;;;;-145.69;100.00;52519.63;5055607;28;20195;-84
2022/10/20 05:50:19;;;;;;;24.23;11.07;;;;;;;-145.69;100.00;52553.31;5055213;28;20675;-82
2022/10/20 05:52:46;;;;;;;20.13;10.93;;;;;;;-145.69;100.00;52581.03;5059559;28;20203;-83
2022/10/20 05:55:14;;;;;;;22.67;10.80;;;;;;;-145.69;100.00;52543.41;5058356;28;20227;-84
2022/10/20 05:57:40;;;;;;;16.40;9.60;;;;;;;-145.69;100.00;52567.16;5056033;28;20558;-84
2022/10/20 06:00:08;;;;;;;16.92;9.57;;;;;;;-145.69;100.00;52543.41;5056532;28;20199;-84
2022/10/20 06:02:35;;;;;;;17.83;9.63;;;;;;;-145.69;100.00;52539.44;5056374;28;20688;-84
2022/10/20 06:05:01;;;;;;;15.90;9.23;;;;;;;-145.69;100.00;52541.44;5056756;28;20204;-84
2022/10/20 06:07:28;;;;;;;22.30;9.53;;;;;;;-145.69;100.00;52549.34;5056041;28;20211;-84
2022/10/20 06:09:57;;;;;;;18.98;10.35;;;;;;;-145.69;100.00;52551.31;5054468;28;20204;-84
2022/10/20 06:12:24;;;;;;;17.27;9.55;;;;;;;-145.69;100.00;52563.22;5054213;28;20296;-83
2022/10/20 06:14:54;;;;;;;17.92;9.95;;;;;;;-145.69;100.00;52531.53;5055513;28;20242;-83
2022/10/20 06:17:20;;;;;;;16.95;8.75;;;;;;;-145.69;100.00;52547.38;5055210;28;20203;-83
2022/10/20 06:19:47;;;;;;;18.27;9.48;;;;;;;-145.69;100.00;52559.25;5053252;28;20293;-83
2022/10/20 06:22:13;;;;;;;17.30;8.77;;;;;;;-145.69;100.00;52545.38;5053173;28;20195;-83
2022/10/20 06:24:40;;;;;;;18.57;9.17;;;;;;;-145.69;100.00;52543.41;5053361;28;20621;-83
2022/10/20 06:27:18;;;;;;;17.92;8.68;;;;;;;-145.69;100.00;52515.69;5053647;28;20674;-83
2022/10/20 06:29:46;;;;;;;16.43;8.53;;;;;;;-145.69;100.00;52547.38;5053493;28;20207;-84
2022/10/20 06:32:12;;;;;;;14.95;8.70;;;;;;;-145.69;100.00;52539.44;5041200;28;20824;-83
2022/10/20 06:34:39;;;;;;;13.65;7.55;;;;;;;-145.69;100.00;52523.59;5035391;28;20231;-82
2022/10/20 06:37:05;;;;;;;14.98;7.75;;;;;;;-145.69;100.00;52579.06;5036261;28;20200;-83
2022/10/20 06:39:32;;;;;;;14.43;7.25;;;;;;;-145.69;100.00;52535.47;5037190;28;20654;-83
2022/10/20 06:41:58;;;;;;;13.23;7.28;;;;;;;-145.69;100.00;52577.06;5040012;28;20243;-84
2022/10/20 06:44:25;;;;;;;15.70;8.40;;;;;;;-145.69;100.00;52519.63;5039746;28;20387;-83
2022/10/20 06:46:53;;;;;;;15.35;7.70;;;;;;;-145.69;100.00;52565.19;5039196;28;20215;-84
2022/10/20 06:49:21;;;;;;;17.60;7.72;;;;;;;-145.69;100.00;52523.59;5038226;28;20287;-82
2022/10/20 06:51:47;;;;;;;13.50;7.95;;;;;;;-145.69;100.00;52527.56;5037366;28;20196;-83
2022/10/20 06:54:14;;;;;;;15.88;7.28;;;;;;;-145.69;100.00;52529.53;5039207;28;20224;-83
2022/10/20 06:56:41;;;;;;;16.40;7.45;;;;;;;-145.69;100.00;52545.38;5038783;28;20231;-82
2022/10/20 06:59:07;;;;;;;15.88;7.72;;;;;;;-145.69;100.00;52543.41;5037825;28;20207;-82
2022/10/20 07:01:35;;;;;;;14.93;7.38;;;;;;;-145.69;100.00;52531.53;5037812;28;20200;-82
2022/10/20 07:04:05;;;;;;;14.95;7.13;;;;;;;-145.69;100.00;52529.53;5038552;28;20200;-82
2022/10/20 07:06:33;;;;;;;12.00;6.55;;;;;;;-145.69;100.00;52527.56;5037955;28;20199;-82
2022/10/20 07:09:02;;;;;;;10.82;6.68;;;;;;;-145.69;100.00;52527.56;5039584;28;20562;-83
2022/10/20 07:11:30;;;;;;;16.67;6.47;;;;;;;-145.69;100.00;52547.38;5039593;28;20208;-82
2022/10/20 07:13:59;;;;;;;11.85;6.38;;;;;;;-145.69;100.00;52484.00;5039725;28;20315;-83
2022/10/20 07:16:28;;;;;;;12.98;6.93;;;;;;;-145.69;100.00;52505.78;5037774;28;20200;-83
2022/10/20 07:18:56;;;;;;;16.50;6.82;;;;;;;-145.69;100.00;52541.44;5038004;28;20240;-82
2022/10/20 07:21:26;;;;;;;12.38;6.75;;;;;;;-145.69;100.00;52539.44;5039388;28;20196;-83
2022/10/20 07:23:54;;;;;;;12.20;7.28;;;;;;;-145.69;100.00;52505.78;5038755;28;20207;-83
2022/10/20 07:26:23;;;;;;;8.82;5.80;;;;;;;-145.69;100.00;52493.91;5037742;28;20204;-82
2022/10/20 07:28:52;;;;;;;10.00;5.82;;;;;;;-145.69;100.00;52507.75;5039478;28;20215;-82
2022/10/20 07:31:21;;;;;;;8.65;5.13;;;;;;;-145.69;100.00;52531.53;5039100;28;20200;-83
2022/10/20 07:33:48;;;;;;;18.80;5.90;;;;;;;-145.69;100.00;52497.84;5049246;28;20223;-83
2022/10/20 07:36:17;;;;;;;10.35;5.88;;;;;;;-145.69;100.00;52519.63;5059871;28;20215;-84
2022/10/20 07:38:46;;;;;;;12.45;4.90;;;;;;;-145.69;100.00;52509.75;5062924;28;20269;-83
2022/10/20 07:41:14;;;;;;;12.85;5.97;;;;;;;-145.69;100.00;52523.59;5061113;28;20206;-83
2022/10/20 07:43:41;;;;;;;10.27;5.85;;;;;;;-145.69;100.00;52527.56;5060740;28;20199;-84
2022/10/20 07:46:08;;;;;;;12.80;5.38;;;;;;;-145.69;100.00;52523.59;5060821;28;20201;-83
2022/10/20 07:48:35;;;;;;;9.20;5.00;;;;;;;-145.69;100.00;52515.69;5060188;28;20281;-83
2022/10/20 07:51:16;;;;;;;8.35;5.05;;;;;;;-145.69;100.00;52515.69;5060009;28;20206;-83
2022/10/20 07:53:44;;;;;;;8.90;4.35;;;;;;;-145.69;100.00;52515.69;5060388;28;20195;-83
2022/10/20 07:56:11;;;;;;;9.02;4.40;;;;;;;-145.69;100.00;52484.00;5059346;28;20286;-83
2022/10/20 07:58:39;;;;;;;5.68;3.88;;;;;;;-145.69;100.00;52507.75;5059674;28;20314;-84
2022/10/20 08:01:06;;;;;;;5.30;3.50;;;;;;;-145.69;100.00;52509.75;5058665;28;20199;-83
2022/10/20 08:03:33;;;;;;;8.45;3.35;;;;;;;-145.69;100.00;52456.28;5058482;28;20202;-82
2022/10/20 08:05:59;;;;;;;10.48;3.50;;;;;;;-145.69;100.00;52515.69;5061256;28;20215;-82
2022/10/20 08:08:26;;;;;;;5.80;3.55;;;;;;;-145.69;100.00;52505.78;5061243;28;20195;-82
2022/10/20 08:10:54;;;;;;;6.88;3.80;;;;;;;-145.69;100.00;52482.00;5060831;28;20199;-83
2022/10/20 08:13:21;;;;;;;4.43;3.28;;;;;;;-145.69;100.00;52489.94;5060515;28;20616;-81
2022/10/20 08:15:47;;;;;;;7.88;3.20;;;;;;;-145.69;100.00;52472.13;5059140;28;20231;-83
2022/10/20 08:18:14;;;;;;;7.53;3.25;;;;;;;-145.69;100.00;52468.16;5062233;28;20207;-83
2022/10/20 08:20:41;;;;;;;5.70;3.38;;;;;;;-145.69;100.00;52450.31;5063596;28;20204;-83
2022/10/20 08:23:10;;;;;;;5.70;2.90;;;;;;;-145.69;100.00;52468.16;5062945;28;20205;-83
2022/10/20 08:25:37;;;;;;;5.95;2.83;;;;;;;-145.69;100.00;52432.50;5055630;28;20211;-83
2022/10/20 08:28:07;;;;;;;4.25;2.25;;;;;;;-145.69;100.00;52414.69;5043827;28;20210;-83
2022/10/20 08:30:40;;;;;;;4.47;2.65;;;;;;;-145.69;100.00;52444.38;5042351;28;20670;-82
2022/10/20 08:33:06;;;;;;;4.85;2.75;;;;;;;-145.69;100.00;52458.25;5053320;28;20198;-82
2022/10/20 08:35:33;;;;;;;6.07;3.10;;;;;;;-145.69;100.00;52456.28;5055747;28;20227;-83
2022/10/20 08:37:59;;;;;;;6.22;2.55;;;;;;;-145.69;100.00;52468.16;5054429;28;20295;-83
2022/10/20 08:40:28;;;;;;;9.15;2.67;;;;;;;-145.69;100.00;52472.13;5054822;28;20216;-84
2022/10/20 08:42:55;;;;;;;7.50;3.28;;;;;;;-145.69;100.00;52440.44;5054701;28;20195;-84
2022/10/20 08:45:25;;;;;;;6.68;2.47;;;;;;;-145.69;100.00;52414.69;5054370;28;20210;-83
2022/10/20 08:47:53;;;;;;;6.50;2.28;;;;;;;-145.69;100.00;52420.63;5054511;28;20290;-83
2022/10/20 08:50:21;;;;;;;2.60;1.70;;;;;;;-145.69;100.00;52428.53;5054581;28;20286;-84
2022/10/20 08:52:54;;;;;;;2.97;1.58;;;;;;;-145.69;100.00;52412.69;5054784;28;20273;-82
2022/10/20 08:55:27;;;;;;;5.15;2.33;;;;;;;-145.69;100.00;52412.69;5042884;28;20220;-85
2022/10/20 08:58:01;;;;;;;4.07;2.00;;;;;;;-145.69;100.00;52404.78;5033107;28;20504;-84
2022/10/20 09:00:30;;;;;;;3.78;2.00;;;;;;;-145.69;100.00;52404.78;5034207;28;20204;-84
2022/10/20 09:03:02;;;;;;;6.43;1.90;;;;;;;-145.69;100.00;52422.59;5033453;28;20295;-84
2022/10/20 09:05:32;;;;;;;4.05;1.65;;;;;;;-145.69;100.00;52381.00;5034379;28;20232;-84
2022/10/20 09:07:59;;;;;;;5.32;1.83;;;;;;;-145.69;100.00;52388.94;5033997;28;20204;-83
2022/10/20 09:10:33;;;;;;;4.10;1.55;;;;;;;-145.69;100.00;52355.28;5034096;28;20196;-85
2022/10/20 09:13:01;;;;;;;4.00;1.50;;;;;;;-145.69;98.39;52349.31;5033235;28;20206;-84
2022/10/20 09:15:32;;;;;;;4.07;1.67;;;;;;;-145.69;100.00;52363.19;5033660;28;20224;-85
2022/10/20 09:18:02;;;;;;;9.50;1.80;;;;;;;-145.69;100.00;52365.16;5033954;28;20230;-84
2022/10/20 09:20:33;;;;;;;3.75;1.80;;;;;;;-145.69;98.53;52375.06;5033955;28;20207;-84
2022/10/20 09:23:00;;;;;;;3.13;1.70;;;;;;;-145.69;95.13;52361.22;5033796;28;20291;-85
2022/10/20 09:25:27;;;;;;;3.47;1.80;;;;;;;-145.69;90.38;52377.06;5045318;28;20227;-85
2022/10/20 09:27:55;;;;;;;4.13;1.50;;;;;;;-145.69;94.38;52369.13;5053142;28;20199;-85
2022/10/20 09:30:25;;;;;;;5.97;1.77;;;;;;;-145.69;92.15;52339.44;5051706;28;20238;-85
2022/10/20 09:32:53;;;;;;;2.65;1.30;;;;;;;-145.69;90.77;52361.22;5051672;28;20653;-85
2022/10/20 09:35:27;;;;;;;8.98;1.70;;;;;;;-145.69;92.40;52388.94;5051656;28;20241;-85
2022/10/20 09:38:02;;;;;;;10.38;1.80;;;;;;;-145.69;93.82;52369.13;5051693;28;20230;-85
2022/10/20 09:40:28;;;;;;;11.40;1.65;;;;;;;-145.69;100.00;52388.94;5052264;28;20203;-84
2022/10/20 09:43:07;;;;;;;2.78;1.40;;;;;;;-145.69;99.16;52375.06;5053258;28;20207;-85
2022/10/20 09:45:34;;;;;;;4.70;1.90;;;;;;;-145.69;99.54;52361.22;5053500;28;20582;-85
2022/10/20 09:48:20;;;;;;;5.65;2.33;;;;;;;-145.69;100.00;52369.13;5053141;28;20719;-85
2022/10/20 09:50:50;;;;;;;4.50;2.40;;;;;;;-145.69;100.00;52353.28;5053159;28;20200;-84
2022/10/20 09:53:20;;;;;;;3.63;1.90;;;;;;;-145.69;100.00;52359.22;5053669;28;20214;-85
2022/10/20 09:55:49;;;;;;;7.43;2.47;;;;;;;-145.69;100.00;52373.09;5035662;28;20230;-85
2022/10/20 09:58:23;;;;;;;5.95;2.47;;;;;;;-145.69;100.00;52396.84;5033451;28;20215;-85
2022/10/20 10:00:57;;;;;;;6.45;2.88;;;;;;;-145.69;100.00;52359.22;5033241;28;20376;-85
2022/10/20 10:03:26;;;;;;;5.15;2.30;;;;;;;-145.69;100.00;52377.06;5033151;28;20598;-84
2022/10/20 10:05:59;;;;;;;6.53;2.80;;;;;;;-145.69;100.00;52371.13;5033318;28;20202;-85
2022/10/20 10:08:40;;;;;;;10.25;2.25;;;;;;;-145.69;100.00;52361.22;5033409;28;20204;-85
2022/10/20 10:11:16;;;;;;;4.07;1.75;;;;;;;-145.69;100.00;52337.44;5033475;28;20211;-85
2022/10/20 10:13:45;;;;;;;10.27;2.20;;;;;;;-145.69;100.00;52392.91;5034061;28;20199;-85
2022/10/20 10:16:15;;;;;;;6.10;2.50;;;;;;;-145.69;100.00;52379.03;5037100;28;20228;-85
2022/10/20 10:18:47;;;;;;;6.57;2.35;;;;;;;-145.69;100.00;52369.13;5037101;28;20228;-85
2022/10/20 10:21:19;;;;;;;5.90;2.30;;;;;;;-145.69;100.00;52359.22;5039240;28;20196;-84
2022/10/20 10:23:54;;;;;;;3.85;1.92;;;;;;;-145.69;99.90;52400.81;5037327;28;20204;-85
2022/10/20 10:26:42;;;;;;;6.18;2.47;;;;;;;-145.69;99.99;52349.31;5056965;28;20234;-85
2022/10/20 10:29:17;;;;;;;5.88;2.38;;;;;;;-145.69;98.01;52386.97;5056950;28;20650;-85
2022/10/20 10:31:50;;;;;;;8.00;1.92;;;;;;;-145.69;100.00;52355.28;5056966;28;20202;-85
2022/10/20 10:34:34;;;;;;;5.28;1.75;;;;;;;-145.69;97.58;52355.28;5056748;28;20195;-85
2022/10/20 10:37:01;;;;;;;4.47;2.13;;;;;;;-145.69;98.91;52357.25;5056959;28;20261;-85
2022/10/20 10:39:33;;;;;;;6.32;2.08;;;;;;;-145.69;95.85;52345.38;5056779;28;20658;-85
2022/10/20 10:42:15;;;;;;;7.43;2.50;;;;;;;-145.69;95.63;52363.19;5056731;28;20658;-85
2022/10/20 10:44:54;;;;;;;8.30;2.20;;;;;;;-145.69;96.58;52349.31;5056597;28;20203;-83
2022/10/20 10:47:40;;;;;;;5.28;1.98;;;;;;;-145.69;100.00;52337.44;5056386;28;20206;-85
2022/10/20 10:50:26;;;;;;;8.88;2.15;;;;;;;-145.69;100.00;52357.25;5056539;28;20676;-85
2022/10/20 10:53:07;;;;;;;7.53;2.40;;;;;;;-145.69;100.00;52341.41;5056618;28;20573;-85
2022/10/20 10:55:47;;;;;;;5.20;1.67;;;;;;;-145.69;100.00;52349.31;5038657;28;20577;-85
2022/10/20 10:58:25;;;;;;;4.00;1.50;;;;;;;-145.69;100.00;52361.22;5036538;28;20208;-85
2022/10/20 11:01:02;;;;;;;2.97;1.63;;;;;;;-145.69;100.00;52323.59;5036548;28;20200;-85
2022/10/20 11:03:47;;;;;;;7.90;1.80;;;;;;;-145.69;100.00;52357.25;5036519;28;20204;-84
2022/10/20 11:06:24;;;;;;;7.80;2.35;;;;;;;-145.69;100.00;52375.06;5036745;28;20295;-85
2022/10/20 11:09:03;;;;;;;6.78;2.55;;;;;;;-145.69;100.00;52345.38;5036379;28;20208;-85
2022/10/20 11:11:41;;;;;;;9.27;2.50;;;;;;;-145.69;100.00;52361.22;5036384;28;20610;-85